createdAt,value
2023-02-27T00:00:15.512Z,0.40
2023-02-27T00:02:43.064Z,0.50
2023-02-27T00:05:11.374Z,0.40
2023-02-27T00:07:39.833Z,0.73
2023-02-27T00:10:08.525Z,0.50
2023-02-27T00:12:37.872Z,0.50
2023-02-27T00:15:06.557Z,0.60
2023-02-27T00:17:35.535Z,0.50
2023-02-27T00:20:03.604Z,0.60
2023-02-27T00:22:30.975Z,0.83
2023-02-27T00:24:58.830Z,0.60
2023-02-27T00:27:26.333Z,0.67
2023-02-27T00:29:53.690Z,0.60
2023-02-27T00:32:21.141Z,0.53
2023-02-27T00:34:49.949Z,0.57
2023-02-27T00:37:17.452Z,0.90
2023-02-27T00:39:45.066Z,0.50
2023-02-27T00:42:12.412Z,0.53
2023-02-27T00:44:40.805Z,0.60
2023-02-27T00:47:08.275Z,0.77
2023-02-27T00:49:36.027Z,0.70
2023-02-27T00:52:05.591Z,0.47
2023-02-27T00:54:33.189Z,0.70
2023-02-27T00:57:00.523Z,0.63
2023-02-27T00:59:27.994Z,0.40
2023-02-27T01:01:55.433Z,0.60
2023-02-27T01:04:22.941Z,0.50
2023-02-27T01:06:50.443Z,0.53
2023-02-27T01:09:19.594Z,0.40
2023-02-27T01:11:46.931Z,0.60
2023-02-27T01:14:14.927Z,0.40
2023-02-27T01:16:45.302Z,0.50
2023-02-27T01:19:12.754Z,0.47
2023-02-27T01:21:41.940Z,0.57
2023-02-27T01:24:09.495Z,0.60
2023-02-27T01:26:38.712Z,0.50
2023-02-27T01:29:06.580Z,0.60
2023-02-27T01:31:34.274Z,0.70
2023-02-27T01:34:01.730Z,0.43
2023-02-27T01:36:29.654Z,0.60
2023-02-27T01:38:57.088Z,0.80
2023-02-27T01:41:25.696Z,0.70
2023-02-27T01:43:57.681Z,0.50
2023-02-27T01:46:25.236Z,0.43
2023-02-27T01:48:55.614Z,0.80
2023-02-27T01:51:23.178Z,0.43
2023-02-27T01:53:53.279Z,0.50
2023-02-27T01:56:21.778Z,0.50
2023-02-27T01:58:50.110Z,0.50
2023-02-27T02:01:20.205Z,0.40
2023-02-27T02:03:49.656Z,0.70
2023-02-27T02:06:17.306Z,0.50
2023-02-27T02:08:45.998Z,0.37
2023-02-27T02:11:14.242Z,0.30
2023-02-27T02:13:42.509Z,0.50
2023-02-27T02:16:21.424Z,0.50
2023-02-27T02:18:52.816Z,0.40
2023-02-27T02:21:36.606Z,0.30
2023-02-27T02:24:16.769Z,0.50
2023-02-27T02:26:59.378Z,0.50
2023-02-27T02:29:40.219Z,0.40
2023-02-27T02:32:17.278Z,0.43
2023-02-27T02:34:59.072Z,0.60
2023-02-27T02:37:42.141Z,0.63
2023-02-27T02:40:18.613Z,0.40
2023-02-27T02:42:49.006Z,0.40
2023-02-27T02:45:19.002Z,0.43
2023-02-27T02:47:54.051Z,0.43
2023-02-27T02:50:25.845Z,0.37
2023-02-27T02:53:01.974Z,0.87
2023-02-27T02:55:33.839Z,0.50
2023-02-27T02:58:04.687Z,0.40
2023-02-27T03:00:33.737Z,0.57
2023-02-27T03:03:04.215Z,0.60
2023-02-27T03:05:33.795Z,0.40
2023-02-27T03:08:03.441Z,0.60
2023-02-27T03:10:34.403Z,0.40
2023-02-27T03:13:04.491Z,0.60
2023-02-27T03:15:34.584Z,0.70
2023-02-27T03:18:04.371Z,0.70
2023-02-27T03:20:33.562Z,0.60
2023-02-27T03:23:04.846Z,0.40
2023-02-27T03:25:34.816Z,0.70
2023-02-27T03:28:05.113Z,0.60
2023-02-27T03:30:36.134Z,0.50
2023-02-27T03:33:09.121Z,0.50
2023-02-27T03:35:42.872Z,0.63
2023-02-27T03:38:12.952Z,0.60
2023-02-27T03:40:48.200Z,0.40
2023-02-27T03:43:21.911Z,0.60
2023-02-27T03:45:57.171Z,0.50
2023-02-27T03:48:25.140Z,0.50
2023-02-27T03:50:53.135Z,0.60
2023-02-27T03:53:25.985Z,0.50
2023-02-27T03:55:55.709Z,0.70
2023-02-27T03:58:23.193Z,0.87
2023-02-27T04:00:50.790Z,2.30
2023-02-27T04:03:18.613Z,5.30
2023-02-27T04:05:46.124Z,3.93
2023-02-27T04:08:20.390Z,3.17
2023-02-27T04:11:01.732Z,1.00
2023-02-27T04:13:38.737Z,0.50
2023-02-27T04:16:24.315Z,1.00
2023-02-27T04:18:57.235Z,1.40
2023-02-27T04:21:29.038Z,0.90
2023-02-27T04:23:58.978Z,1.07
2023-02-27T04:26:29.874Z,0.77
2023-02-27T04:29:03.648Z,0.80
2023-02-27T04:31:33.993Z,1.10
2023-02-27T04:34:02.669Z,1.23
2023-02-27T04:36:32.199Z,1.30
2023-02-27T04:39:02.859Z,3.57
2023-02-27T04:41:33.710Z,7.90
2023-02-27T04:44:03.329Z,4.40
2023-02-27T04:46:32.609Z,2.27
2023-02-27T04:49:02.458Z,1.53
2023-02-27T04:51:33.970Z,2.43
2023-02-27T04:54:03.184Z,2.27
2023-02-27T04:56:34.195Z,2.40
2023-02-27T04:59:04.300Z,2.50
2023-02-27T05:01:35.372Z,2.90
2023-02-27T05:04:04.074Z,3.10
2023-02-27T05:06:33.510Z,3.50
2023-02-27T05:09:05.573Z,0.97
2023-02-27T05:11:37.996Z,1.20
2023-02-27T05:14:10.738Z,2.53
2023-02-27T05:16:42.017Z,1.70
2023-02-27T05:19:09.900Z,4.57
2023-02-27T05:21:40.738Z,3.93
2023-02-27T05:24:12.502Z,2.10
2023-02-27T05:27:01.041Z,5.47
2023-02-27T05:29:32.828Z,6.77
2023-02-27T05:32:04.756Z,4.73
2023-02-27T05:34:35.628Z,3.67
2023-02-27T05:37:04.469Z,1.40
2023-02-27T05:39:32.627Z,1.60
2023-02-27T05:42:02.719Z,1.30
2023-02-27T05:44:33.452Z,2.67
2023-02-27T05:47:02.915Z,2.70
2023-02-27T05:49:32.363Z,2.73
2023-02-27T05:52:01.838Z,2.93
2023-02-27T05:54:32.823Z,3.27
2023-02-27T05:57:00.714Z,2.80
2023-02-27T05:59:30.727Z,2.87
2023-02-27T06:02:00.146Z,2.40
2023-02-27T06:04:27.724Z,1.07
2023-02-27T06:06:55.220Z,1.43
2023-02-27T06:09:22.705Z,1.73
2023-02-27T06:11:50.090Z,2.20
2023-02-27T06:14:17.794Z,2.10
2023-02-27T06:16:45.897Z,1.27
2023-02-27T06:19:14.628Z,1.20
2023-02-27T06:21:42.213Z,1.00
2023-02-27T06:24:09.763Z,0.57
2023-02-27T06:26:37.444Z,1.00
2023-02-27T06:29:05.719Z,0.57
2023-02-27T06:31:33.378Z,0.70
2023-02-27T06:34:00.884Z,0.63
2023-02-27T06:36:30.625Z,0.73
2023-02-27T06:38:59.389Z,0.83
2023-02-27T06:41:27.045Z,0.60
2023-02-27T06:43:55.669Z,0.70
2023-02-27T06:46:23.273Z,1.20
2023-02-27T06:48:50.820Z,0.50
2023-02-27T06:51:18.877Z,1.20
2023-02-27T06:53:47.984Z,0.87
2023-02-27T06:56:15.632Z,1.17
2023-02-27T06:58:43.000Z,2.10
2023-02-27T07:01:11.392Z,2.73
2023-02-27T07:03:39.453Z,2.37
2023-02-27T07:06:07.128Z,1.23
2023-02-27T07:08:35.932Z,1.00
2023-02-27T07:11:04.682Z,0.90
2023-02-27T07:13:32.005Z,0.93
2023-02-27T07:16:00.259Z,1.87
2023-02-27T07:18:27.807Z,8.90
2023-02-27T07:20:56.002Z,13.20
2023-02-27T07:23:23.600Z,10.53
2023-02-27T07:25:51.289Z,5.47
2023-02-27T07:28:20.687Z,2.67
2023-02-27T07:30:48.348Z,2.20
2023-02-27T07:33:15.785Z,1.10
2023-02-27T07:35:43.225Z,1.10
2023-02-27T07:38:10.638Z,1.00
2023-02-27T07:40:38.693Z,2.53
2023-02-27T07:43:06.045Z,3.40
2023-02-27T07:45:34.753Z,3.80
2023-02-27T07:48:02.669Z,3.80
2023-02-27T07:50:30.450Z,4.30
2023-02-27T07:52:58.187Z,5.63
2023-02-27T07:55:26.390Z,5.40
2023-02-27T07:57:53.739Z,4.30
2023-02-27T08:00:22.189Z,4.23
2023-02-27T08:02:51.038Z,3.90
2023-02-27T08:05:19.212Z,3.93
2023-02-27T08:07:46.587Z,3.90
2023-02-27T08:10:16.127Z,3.83
2023-02-27T08:12:44.724Z,3.33
2023-02-27T08:15:13.315Z,2.87
2023-02-27T08:17:40.991Z,3.17
2023-02-27T08:20:13.602Z,3.57
2023-02-27T08:22:43.673Z,4.00
2023-02-27T08:25:12.093Z,4.37
2023-02-27T08:27:40.569Z,3.27
2023-02-27T08:30:09.366Z,3.40
2023-02-27T08:32:39.232Z,3.13
2023-02-27T08:35:08.052Z,1.80
2023-02-27T08:37:38.405Z,2.03
2023-02-27T08:40:09.062Z,1.30
2023-02-27T08:42:36.617Z,1.90
2023-02-27T08:45:04.500Z,1.77
2023-02-27T08:47:31.866Z,2.07
2023-02-27T08:50:00.193Z,1.30
2023-02-27T08:52:28.104Z,1.70
2023-02-27T08:54:56.786Z,1.50
2023-02-27T08:57:24.195Z,2.03
2023-02-27T08:59:51.568Z,2.00
2023-02-27T09:02:19.467Z,2.03
2023-02-27T09:04:46.896Z,2.00
2023-02-27T09:07:14.342Z,1.60
2023-02-27T09:09:41.700Z,2.10
2023-02-27T09:12:10.634Z,2.10
2023-02-27T09:14:39.375Z,1.67
2023-02-27T09:17:06.910Z,1.70
2023-02-27T09:19:34.970Z,1.50
2023-02-27T09:22:02.377Z,1.57
2023-02-27T09:24:29.856Z,1.77
2023-02-27T09:26:57.578Z,1.80
2023-02-27T09:29:27.584Z,1.77
2023-02-27T09:31:55.027Z,1.87
2023-02-27T09:34:22.431Z,1.50
2023-02-27T09:36:50.031Z,1.43
2023-02-27T09:39:17.772Z,1.60
2023-02-27T09:41:53.783Z,1.77
2023-02-27T09:44:44.930Z,1.70
2023-02-27T09:47:16.242Z,1.40
2023-02-27T09:49:48.901Z,1.80
2023-02-27T09:52:16.361Z,1.27
2023-02-27T09:54:44.670Z,1.23
2023-02-27T09:57:15.947Z,1.47
2023-02-27T09:59:47.873Z,1.37
2023-02-27T10:02:23.458Z,1.23
2023-02-27T10:04:53.851Z,1.90
2023-02-27T10:07:24.659Z,1.07
2023-02-27T10:09:57.392Z,1.60
2023-02-27T10:12:35.985Z,1.60
2023-02-27T10:15:09.809Z,1.50
2023-02-27T10:17:40.455Z,1.77
2023-02-27T10:20:11.092Z,1.47
2023-02-27T10:22:42.166Z,1.90
2023-02-27T10:25:29.854Z,1.93
2023-02-27T10:28:01.391Z,1.50
2023-02-27T10:30:33.513Z,1.90
2023-02-27T10:33:07.380Z,1.60
2023-02-27T10:35:36.297Z,1.70
2023-02-27T10:38:05.337Z,1.40
2023-02-27T10:40:35.942Z,1.97
2023-02-27T10:43:06.328Z,1.63
2023-02-27T10:45:37.037Z,1.80
2023-02-27T10:48:06.194Z,1.57
2023-02-27T10:50:34.585Z,2.50
2023-02-27T10:53:03.150Z,1.90
2023-02-27T10:55:31.591Z,2.30
2023-02-27T10:58:00.456Z,1.93
2023-02-27T11:00:32.091Z,1.70
2023-02-27T11:03:00.908Z,1.80
2023-02-27T11:05:29.025Z,2.10
2023-02-27T11:07:57.343Z,1.60
2023-02-27T11:10:25.892Z,2.00
2023-02-27T11:13:00.666Z,2.43
2023-02-27T11:15:29.528Z,1.83
2023-02-27T11:18:16.901Z,1.00
2023-02-27T11:20:50.710Z,2.20
2023-02-27T11:23:20.318Z,1.60
2023-02-27T11:25:47.981Z,1.77
2023-02-27T11:28:20.826Z,1.73
2023-02-27T11:30:56.975Z,1.57
2023-02-27T11:33:25.107Z,1.60
2023-02-27T11:35:55.875Z,1.80
2023-02-27T11:38:26.262Z,1.93
2023-02-27T11:40:55.937Z,2.17
2023-02-27T11:43:25.056Z,1.97
2023-02-27T11:46:04.329Z,1.40
2023-02-27T11:48:37.401Z,1.53
2023-02-27T11:51:19.717Z,1.83
2023-02-27T11:54:02.398Z,1.87
2023-02-27T11:56:35.985Z,1.53
2023-02-27T11:59:06.037Z,1.47
2023-02-27T12:01:36.618Z,1.30
2023-02-27T12:04:06.109Z,1.33
2023-02-27T12:06:37.786Z,1.47
2023-02-27T12:09:11.042Z,1.03
2023-02-27T12:11:41.852Z,0.80
2023-02-27T12:14:13.537Z,1.00
2023-02-27T12:16:42.656Z,1.60
2023-02-27T12:19:13.868Z,1.37
2023-02-27T12:21:42.984Z,1.30
2023-02-27T12:24:16.243Z,0.70
2023-02-27T12:26:44.868Z,0.70
2023-02-27T12:29:16.050Z,1.07
2023-02-27T12:31:47.503Z,0.93
2023-02-27T12:34:29.357Z,0.67
2023-02-27T12:37:03.312Z,0.67
2023-02-27T12:39:32.738Z,0.80
2023-02-27T12:42:18.902Z,0.80
2023-02-27T12:44:59.653Z,0.90
2023-02-27T12:47:32.356Z,1.07
2023-02-27T12:50:02.359Z,1.10
2023-02-27T12:52:35.538Z,1.00
2023-02-27T12:55:08.083Z,1.03
2023-02-27T12:57:51.193Z,1.00
2023-02-27T13:00:20.601Z,1.20
2023-02-27T13:02:50.974Z,1.23
2023-02-27T13:05:29.492Z,1.30
2023-02-27T13:08:02.454Z,1.20
2023-02-27T13:10:33.469Z,1.43
2023-02-27T13:13:05.522Z,1.03
2023-02-27T13:15:38.983Z,1.10
2023-02-27T13:18:09.380Z,1.37
2023-02-27T13:20:40.983Z,1.20
2023-02-27T13:23:17.222Z,1.57
2023-02-27T13:25:48.185Z,1.40
2023-02-27T13:28:17.628Z,1.60
2023-02-27T13:30:47.764Z,0.90
2023-02-27T13:33:21.369Z,1.27
2023-02-27T13:35:52.891Z,1.27
2023-02-27T13:38:34.657Z,1.30
2023-02-27T13:41:21.991Z,1.00
2023-02-27T13:43:52.948Z,1.67
2023-02-27T13:46:24.815Z,1.30
2023-02-27T13:48:53.747Z,1.50
2023-02-27T13:51:39.909Z,1.10
2023-02-27T13:54:08.401Z,1.20
2023-02-27T13:56:36.066Z,0.90
2023-02-27T13:59:13.526Z,1.53
2023-02-27T14:01:41.196Z,1.50
2023-02-27T14:04:17.874Z,1.40
2023-02-27T14:06:46.605Z,1.43
2023-02-27T14:09:17.397Z,1.40
2023-02-27T14:11:52.534Z,1.50
2023-02-27T14:14:37.883Z,1.80
2023-02-27T14:17:05.341Z,1.50
2023-02-27T14:19:50.629Z,1.70
2023-02-27T14:22:30.821Z,1.33
2023-02-27T14:25:03.617Z,1.23
2023-02-27T14:27:33.146Z,1.30
2023-02-27T14:30:03.893Z,1.40
2023-02-27T14:32:34.402Z,1.37
2023-02-27T14:35:01.921Z,1.67
2023-02-27T14:37:30.847Z,1.30
2023-02-27T14:40:01.758Z,1.27
2023-02-27T14:42:37.460Z,1.30
2023-02-27T14:45:14.383Z,1.40
2023-02-27T14:47:42.082Z,1.40
2023-02-27T14:50:22.085Z,1.90
2023-02-27T14:52:50.007Z,1.30
2023-02-27T14:55:18.691Z,1.30
2023-02-27T14:57:56.122Z,1.70
2023-02-27T15:00:33.052Z,1.40
2023-02-27T15:03:00.729Z,1.40
2023-02-27T15:05:32.954Z,1.43
2023-02-27T15:08:02.210Z,1.40
2023-02-27T15:10:33.136Z,1.50
2023-02-27T15:13:01.535Z,1.70
2023-02-27T15:15:29.782Z,1.60
2023-02-27T15:17:59.338Z,1.43
2023-02-27T15:20:29.699Z,1.60
2023-02-27T15:22:57.734Z,1.37
2023-02-27T15:25:30.117Z,1.70
2023-02-27T15:27:58.565Z,1.30
2023-02-27T15:30:26.310Z,1.03
2023-02-27T15:32:55.800Z,1.20
2023-02-27T15:35:26.870Z,0.97
2023-02-27T15:37:55.276Z,0.90
2023-02-27T15:40:24.539Z,1.17
2023-02-27T15:42:53.930Z,2.23
2023-02-27T15:45:24.155Z,1.60
2023-02-27T15:47:53.212Z,1.43
2023-02-27T15:50:28.476Z,0.93
2023-02-27T15:53:00.703Z,2.00
2023-02-27T15:55:29.775Z,1.30
2023-02-27T15:58:03.063Z,1.60
2023-02-27T16:00:32.154Z,2.13
2023-02-27T16:02:59.961Z,2.57
2023-02-27T16:05:32.725Z,1.50
2023-02-27T16:08:02.461Z,1.40
2023-02-27T16:10:31.603Z,0.93
2023-02-27T16:12:59.315Z,1.33
2023-02-27T16:15:29.614Z,1.97
2023-02-27T16:17:58.389Z,1.30
2023-02-27T16:20:38.704Z,1.63
2023-02-27T16:23:07.394Z,1.30
2023-02-27T16:25:34.717Z,0.50
2023-02-27T16:28:02.352Z,0.67
2023-02-27T16:30:29.812Z,1.13
2023-02-27T16:32:59.611Z,0.57
2023-02-27T16:35:27.084Z,0.63
2023-02-27T16:38:00.533Z,0.60
2023-02-27T16:40:28.603Z,0.30
2023-02-27T16:42:56.893Z,0.40
2023-02-27T16:45:25.502Z,0.40
2023-02-27T16:47:54.157Z,0.30
2023-02-27T16:50:22.786Z,0.30
2023-02-27T16:52:50.302Z,0.30
2023-02-27T16:55:19.710Z,0.30
2023-02-27T16:57:47.107Z,0.50
2023-02-27T17:00:16.034Z,0.60
2023-02-27T17:02:43.750Z,0.40
2023-02-27T17:05:13.301Z,0.30
2023-02-27T17:07:41.318Z,0.37
2023-02-27T17:10:09.209Z,0.50
2023-02-27T17:12:39.127Z,0.60
2023-02-27T17:15:08.534Z,0.60
2023-02-27T17:17:36.800Z,0.50
2023-02-27T17:20:07.124Z,0.50
2023-02-27T17:22:35.601Z,0.40
2023-02-27T17:25:02.929Z,0.60
2023-02-27T17:27:30.444Z,0.60
2023-02-27T17:29:59.858Z,0.43
2023-02-27T17:32:27.320Z,0.57
2023-02-27T17:34:54.982Z,0.30
2023-02-27T17:37:22.764Z,0.30
2023-02-27T17:39:50.274Z,0.70
2023-02-27T17:42:18.559Z,0.60
2023-02-27T17:44:46.345Z,0.63
2023-02-27T17:47:15.219Z,0.67
2023-02-27T17:49:43.301Z,0.87
2023-02-27T17:52:10.843Z,0.80
2023-02-27T17:54:38.330Z,0.80
2023-02-27T17:57:06.749Z,0.90
2023-02-27T17:59:34.143Z,0.87
2023-02-27T18:02:01.490Z,0.80
2023-02-27T18:04:30.173Z,0.80
2023-02-27T18:06:57.766Z,1.03
2023-02-27T18:09:25.247Z,1.00
2023-02-27T18:11:52.845Z,0.73
2023-02-27T18:14:20.419Z,0.80
2023-02-27T18:16:48.137Z,0.90
2023-02-27T18:19:15.499Z,1.30
2023-02-27T18:21:47.303Z,1.87
2023-02-27T18:24:16.758Z,1.80
2023-02-27T18:26:45.242Z,1.90
2023-02-27T18:29:13.927Z,1.77
2023-02-27T18:31:42.744Z,1.07
2023-02-27T18:34:10.959Z,1.10
2023-02-27T18:36:38.978Z,0.73
2023-02-27T18:39:07.977Z,0.93
2023-02-27T18:41:35.597Z,0.90
2023-02-27T18:44:03.168Z,1.20
2023-02-27T18:46:31.483Z,1.10
2023-02-27T18:48:59.266Z,1.10
2023-02-27T18:51:27.270Z,1.00
2023-02-27T18:53:54.724Z,1.07
2023-02-27T18:56:24.436Z,1.10
2023-02-27T18:58:54.323Z,1.50
2023-02-27T19:01:22.425Z,1.17
2023-02-27T19:03:50.435Z,1.07
2023-02-27T19:06:17.908Z,1.47
2023-02-27T19:08:45.375Z,1.53
2023-02-27T19:11:21.106Z,1.30
2023-02-27T19:13:50.432Z,1.30
2023-02-27T19:16:18.040Z,1.50
2023-02-27T19:18:45.620Z,1.37
2023-02-27T19:21:13.080Z,1.73
2023-02-27T19:23:40.563Z,1.07
2023-02-27T19:26:08.203Z,1.30
2023-02-27T19:28:36.396Z,1.40
2023-02-27T19:31:08.235Z,1.30
2023-02-27T19:33:36.092Z,1.57
2023-02-27T19:36:05.919Z,1.30
2023-02-27T19:38:33.539Z,1.33
2023-02-27T19:41:01.924Z,1.50
2023-02-27T19:43:29.435Z,1.67
2023-02-27T19:45:57.355Z,1.97
2023-02-27T19:48:26.201Z,2.30
2023-02-27T19:50:54.414Z,3.20
2023-02-27T19:53:22.559Z,3.67
2023-02-27T19:55:58.348Z,2.93
2023-02-27T19:58:25.853Z,3.57
2023-02-27T20:00:53.344Z,3.33
2023-02-27T20:03:20.971Z,3.37
2023-02-27T20:05:49.835Z,3.00
2023-02-27T20:08:17.702Z,3.27
2023-02-27T20:10:53.433Z,3.07
2023-02-27T20:13:20.756Z,3.10
2023-02-27T20:15:55.905Z,3.63
2023-02-27T20:18:24.258Z,3.33
2023-02-27T20:21:00.267Z,2.77
2023-02-27T20:23:28.028Z,2.70
2023-02-27T20:25:55.478Z,2.47
2023-02-27T20:28:22.975Z,2.80
2023-02-27T20:30:50.552Z,2.90
2023-02-27T20:33:17.896Z,2.43
2023-02-27T20:35:45.461Z,2.37
2023-02-27T20:38:16.497Z,2.90
2023-02-27T20:40:44.712Z,2.50
2023-02-27T20:43:12.050Z,2.47
2023-02-27T20:45:40.429Z,2.53
2023-02-27T20:48:08.254Z,2.43
2023-02-27T20:50:36.966Z,2.60
2023-02-27T20:53:04.705Z,2.30
2023-02-27T20:55:33.801Z,2.60
2023-02-27T20:58:01.787Z,2.53
2023-02-27T21:00:29.748Z,2.50
2023-02-27T21:02:57.153Z,2.83
2023-02-27T21:05:24.519Z,2.70
2023-02-27T21:07:51.967Z,2.90
2023-02-27T21:10:19.730Z,2.97
2023-02-27T21:12:48.447Z,3.03
2023-02-27T21:15:16.233Z,3.53
2023-02-27T21:17:43.848Z,3.60
2023-02-27T21:20:13.063Z,2.77
2023-02-27T21:22:41.107Z,3.40
2023-02-27T21:25:10.127Z,3.07
2023-02-27T21:27:37.631Z,3.33
2023-02-27T21:30:07.400Z,3.17
2023-02-27T21:32:35.353Z,3.33
2023-02-27T21:35:02.840Z,3.03
2023-02-27T21:37:30.705Z,3.57
2023-02-27T21:39:58.070Z,3.33
2023-02-27T21:42:25.493Z,3.40
2023-02-27T21:44:53.075Z,3.40
2023-02-27T21:47:22.643Z,3.03
2023-02-27T21:49:51.375Z,3.33
2023-02-27T21:52:18.734Z,3.63
2023-02-27T21:54:46.211Z,3.77
2023-02-27T21:57:13.928Z,3.13
2023-02-27T21:59:42.412Z,3.63
2023-02-27T22:02:10.932Z,3.33
2023-02-27T22:04:39.613Z,3.43
2023-02-27T22:07:07.443Z,3.00
2023-02-27T22:09:36.702Z,2.67
2023-02-27T22:12:04.290Z,3.67
2023-02-27T22:14:31.634Z,3.50
2023-02-27T22:16:59.170Z,3.47
2023-02-27T22:19:26.835Z,3.57
2023-02-27T22:21:55.516Z,3.87
2023-02-27T22:24:23.044Z,4.10
2023-02-27T22:26:50.542Z,3.80
2023-02-27T22:29:17.963Z,3.53
2023-02-27T22:31:45.613Z,3.97
2023-02-27T22:34:17.777Z,3.77
2023-02-27T22:36:45.805Z,2.97
2023-02-27T22:39:15.227Z,3.87
2023-02-27T22:41:43.096Z,3.83
2023-02-27T22:44:13.401Z,4.50
2023-02-27T22:46:42.638Z,3.87
2023-02-27T22:49:12.008Z,3.83
2023-02-27T22:51:39.352Z,3.80
2023-02-27T22:54:07.202Z,4.00
2023-02-27T22:56:37.402Z,4.73
2023-02-27T22:59:05.137Z,4.90
2023-02-27T23:01:34.880Z,3.03
2023-02-27T23:04:03.225Z,3.00
2023-02-27T23:06:31.977Z,2.53
2023-02-27T23:08:59.365Z,2.03
2023-02-27T23:11:27.014Z,2.10
2023-02-27T23:13:56.204Z,2.03
2023-02-27T23:16:24.914Z,1.50
2023-02-27T23:18:54.362Z,1.90
2023-02-27T23:21:24.006Z,1.90
2023-02-27T23:23:53.585Z,1.40
2023-02-27T23:26:21.843Z,1.70
2023-02-27T23:28:49.278Z,1.90
2023-02-27T23:31:18.153Z,1.40
2023-02-27T23:33:45.647Z,2.00
2023-02-27T23:36:13.235Z,1.90
2023-02-27T23:38:41.843Z,1.80
2023-02-27T23:41:09.920Z,1.90
2023-02-27T23:43:37.280Z,1.60
2023-02-27T23:46:08.322Z,2.10
2023-02-27T23:48:38.512Z,1.67
2023-02-27T23:51:06.722Z,1.80
2023-02-27T23:53:35.163Z,1.70
2023-02-27T23:56:02.862Z,1.57
2023-02-27T23:58:30.415Z,2.13
